Time;durP1;ratioP1;P1;durP2;ratioP2;P2;SDS_P1;SDS_P2;PMS_P1;PMS_P2;Temp;Humidity;BMP_temperature;BMP_pressure;BME280_temperature;BME280_humidity;BME280_pressure;Samples;Min_cycle;Max_cycle;Signal;HPM_P1;HPM_P2
2022/10/22 00:01:12;;;;;;;;;;;;;;;;;;5018721;28;19925;-24
2022/10/22 00:03:38;;;;;;;;;;;;;;;;;;5019051;28;20340;-24
2022/10/22 00:06:04;;;;;;;;;;;;;;;;;;5018747;28;19921;-24
2022/10/22 00:08:30;;;;;;;;;;;;;;;;;;5001279;28;20241;-24
2022/10/22 00:10:56;;;;;;;;;;;;;;;;;;5018307;28;20305;-24
2022/10/22 00:13:22;;;;;;;;;;;;;;;;;;5018608;28;19921;-24
2022/10/22 00:15:48;;;;;;;;;;;;;;;;;;5018409;28;19920;-24
2022/10/22 00:18:14;;;;;;;;;;;;;;;;;;5018411;28;19914;-24
2022/10/22 00:20:40;;;;;;;;;;;;;;;;;;5018517;28;20264;-24
2022/10/22 00:23:06;;;;;;;;;;;;;;;;;;5018388;28;19917;-23
2022/10/22 00:25:32;;;;;;;;;;;;;;;;;;5018625;28;20225;-23
2022/10/22 00:27:58;;;;;;;;;;;;;;;;;;5000872;28;20375;-24
2022/10/22 00:30:24;;;;;;;;;;;;;;;;;;5018160;28;19979;-23
2022/10/22 00:32:50;;;;;;;;;;;;;;;;;;5000861;28;19967;-23
2022/10/22 00:35:16;;;;;;;;;;;;;;;;;;5000867;28;20012;-24
2022/10/22 00:37:42;;;;;;;;;;;;;;;;;;5018186;28;19921;-23
2022/10/22 00:40:08;;;;;;;;;;;;;;;;;;5018109;28;19909;-24
2022/10/22 00:42:34;;;;;;;;;;;;;;;;;;5017987;28;19917;-24
2022/10/22 00:45:00;;;;;;;;;;;;;;;;;;5018249;28;19916;-24
2022/10/22 00:47:26;;;;;;;;;;;;;;;;;;5018022;28;19969;-24
2022/10/22 00:49:52;;;;;;;;;;;;;;;;;;5018213;28;19969;-24
2022/10/22 00:52:18;;;;;;;;;;;;;;;;;;5017764;28;20296;-24
2022/10/22 00:54:44;;;;;;;;;;;;;;;;;;5017802;28;19913;-23
2022/10/22 00:57:10;;;;;;;;;;;;;;;;;;5017611;28;19965;-24
2022/10/22 00:59:36;;;;;;;;;;;;;;;;;;5017714;28;19910;-23
2022/10/22 01:02:02;;;;;;;;;;;;;;;;;;5017875;28;19914;-24
2022/10/22 01:04:28;;;;;;;;;;;;;;;;;;5017912;28;19950;-24
2022/10/22 01:06:54;;;;;;;;;;;;;;;;;;5017464;28;19918;-24
2022/10/22 01:09:20;;;;;;;;;;;;;;;;;;5017496;28;20001;-24
2022/10/22 01:11:46;;;;;;;;;;;;;;;;;;5017241;28;20012;-23
2022/10/22 01:14:12;;;;;;;;;;;;;;;;;;5000135;28;19956;-24
2022/10/22 01:16:38;;;;;;;;;;;;;;;;;;5017412;28;19917;-23
2022/10/22 01:19:04;;;;;;;;;;;;;;;;;;5017193;28;19914;-23
2022/10/22 01:21:30;;;;;;;;;;;;;;;;;;5017330;28;19914;-23
2022/10/22 01:23:55;;;;;;;;;;;;;;;;;;5017468;28;19924;-24
2022/10/22 01:26:22;;;;;;;;;;;;;;;;;;5017479;28;20000;-24
2022/10/22 01:28:47;;;;;;;;;;;;;;;;;;5017037;28;19996;-23
2022/10/22 01:31:13;;;;;;;;;;;;;;;;;;5017041;28;20409;-23
2022/10/22 01:33:39;;;;;;;;;;;;;;;;;;5017052;28;19920;-24
2022/10/22 01:36:05;;;;;;;;;;;;;;;;;;4999728;28;19913;-24
2022/10/22 01:38:31;;;;;;;;;;;;;;;;;;5016884;28;19945;-24
2022/10/22 01:40:57;;;;;;;;;;;;;;;;;;5017220;28;20336;-24
2022/10/22 01:43:23;;;;;;;;;;;;;;;;;;4999613;28;20248;-24
2022/10/22 01:45:49;;;;;;;;;;;;;;;;;;5016820;28;20019;-24
2022/10/22 01:48:15;;;;;;;;;;;;;;;;;;5016669;28;20328;-24
2022/10/22 01:50:41;;;;;;;;;;;;;;;;;;4999442;28;20024;-23
2022/10/22 01:53:07;;;;;;;;;;;;;;;;;;5016762;28;19917;-23
2022/10/22 01:55:33;;;;;;;;;;;;;;;;;;5016880;28;20021;-24
2022/10/22 01:57:59;;;;;;;;;;;;;;;;;;5016811;28;19949;-24
2022/10/22 02:00:25;;;;;;;;;;;;;;;;;;5016885;28;19910;-24
2022/10/22 02:02:51;;;;;;;;;;;;;;;;;;5016500;28;19913;-24
2022/10/22 02:05:17;;;;;;;;;;;;;;;;;;5016493;28;19960;-23
2022/10/22 02:07:43;;;;;;;;;;;;;;;;;;5016341;28;20019;-23
2022/10/22 02:10:09;;;;;;;;;;;;;;;;;;5016282;28;20008;-24
2022/10/22 02:12:35;;;;;;;;;;;;;;;;;;5016097;28;19914;-24
2022/10/22 02:15:01;;;;;;;;;;;;;;;;;;5016276;28;19916;-24
2022/10/22 02:17:27;;;;;;;;;;;;;;;;;;5016212;28;19956;-23
2022/10/22 02:19:53;;;;;;;;;;;;;;;;;;4998903;28;20055;-24
2022/10/22 02:22:19;;;;;;;;;;;;;;;;;;4998841;28;19913;-23
2022/10/22 02:24:45;;;;;;;;;;;;;;;;;;5016365;28;19925;-23
2022/10/22 02:27:11;;;;;;;;;;;;;;;;;;5016000;28;19913;-24
2022/10/22 02:29:37;;;;;;;;;;;;;;;;;;5016329;28;19920;-24
2022/10/22 02:32:03;;;;;;;;;;;;;;;;;;5016183;28;19918;-24
2022/10/22 02:34:29;;;;;;;;;;;;;;;;;;5015968;28;19914;-23
2022/10/22 02:36:55;;;;;;;;;;;;;;;;;;5015762;28;19943;-23
2022/10/22 02:39:21;;;;;;;;;;;;;;;;;;5015902;28;19921;-24
2022/10/22 02:41:47;;;;;;;;;;;;;;;;;;5015839;28;20013;-24
2022/10/22 02:44:13;;;;;;;;;;;;;;;;;;5015759;28;20301;-24
2022/10/22 02:46:39;;;;;;;;;;;;;;;;;;5016015;28;19941;-24
2022/10/22 02:49:05;;;;;;;;;;;;;;;;;;5015545;28;19971;-23
2022/10/22 02:51:31;;;;;;;;;;;;;;;;;;5015605;28;19925;-24
2022/10/22 02:53:57;;;;;;;;;;;;;;;;;;5015543;28;19993;-24
2022/10/22 02:56:23;;;;;;;;;;;;;;;;;;5015603;28;19913;-24
2022/10/22 02:58:49;;;;;;;;;;;;;;;;;;5015498;28;19916;-23
2022/10/22 03:01:15;;;;;;;;;;;;;;;;;;5015488;28;20304;-23
2022/10/22 03:03:41;;;;;;;;;;;;;;;;;;5015493;28;19972;-24
2022/10/22 03:06:07;;;;;;;;;;;;;;;;;;5015658;28;20363;-23
2022/10/22 03:08:33;;;;;;;;;;;;;;;;;;5015598;28;20253;-23
2022/10/22 03:10:59;;;;;;;;;;;;;;;;;;5015133;28;19953;-23
2022/10/22 03:13:25;;;;;;;;;;;;;;;;;;5015246;28;20408;-23
2022/10/22 03:15:51;;;;;;;;;;;;;;;;;;5015202;28;20004;-24
2022/10/22 03:18:17;;;;;;;;;;;;;;;;;;5015116;28;20427;-23
2022/10/22 03:20:43;;;;;;;;;;;;;;;;;;5016205;28;19909;-23
2022/10/22 03:23:09;;;;;;;;;;;;;;;;;;5015132;28;20317;-23
2022/10/22 03:25:35;;;;;;;;;;;;;;;;;;5014358;28;20376;-23
2022/10/22 03:28:01;;;;;;;;;;;;;;;;;;5015336;28;19914;-23
2022/10/22 03:30:27;;;;;;;;;;;;;;;;;;5014986;28;19924;-24
2022/10/22 03:32:53;;;;;;;;;;;;;;;;;;5015044;28;20307;-23
2022/10/22 03:35:19;;;;;;;;;;;;;;;;;;5015256;28;19924;-23
2022/10/22 03:37:45;;;;;;;;;;;;;;;;;;5014913;28;19909;-24
2022/10/22 03:40:11;;;;;;;;;;;;;;;;;;5014907;28;19968;-23
2022/10/22 03:42:37;;;;;;;;;;;;;;;;;;5015193;28;20001;-24
2022/10/22 03:45:03;;;;;;;;;;;;;;;;;;5014809;28;20032;-24
2022/10/22 03:47:29;;;;;;;;;;;;;;;;;;5014889;28;19944;-23
2022/10/22 03:49:55;;;;;;;;;;;;;;;;;;5014847;28;19910;-23
2022/10/22 03:52:21;;;;;;;;;;;;;;;;;;5015022;28;20000;-23
2022/10/22 03:54:47;;;;;;;;;;;;;;;;;;5015057;28;20016;-23
2022/10/22 03:57:13;;;;;;;;;;;;;;;;;;5014578;28;19918;-23
2022/10/22 03:59:39;;;;;;;;;;;;;;;;;;5014797;28;20002;-23
2022/10/22 04:02:05;;;;;;;;;;;;;;;;;;5014978;28;19918;-23
2022/10/22 04:04:31;;;;;;;;;;;;;;;;;;5015048;28;19910;-24
2022/10/22 04:06:56;;;;;;;;;;;;;;;;;;5014875;28;19918;-23
2022/10/22 04:09:23;;;;;;;;;;;;;;;;;;5014971;28;19909;-24
2022/10/22 04:11:48;;;;;;;;;;;;;;;;;;5014441;28;20447;-24
2022/10/22 04:14:14;;;;;;;;;;;;;;;;;;5014912;28;19949;-23
2022/10/22 04:16:40;;;;;;;;;;;;;;;;;;5014655;28;19910;-24
2022/10/22 04:19:06;;;;;;;;;;;;;;;;;;5014463;28;20335;-24
2022/10/22 04:21:32;;;;;;;;;;;;;;;;;;5014591;28;20325;-24
2022/10/22 04:23:58;;;;;;;;;;;;;;;;;;4997220;28;19925;-24
2022/10/22 04:26:24;;;;;;;;;;;;;;;;;;5014455;28;19921;-23
2022/10/22 04:28:50;;;;;;;;;;;;;;;;;;5014427;28;19921;-24
2022/10/22 04:31:16;;;;;;;;;;;;;;;;;;5014435;28;20009;-24
2022/10/22 04:33:42;;;;;;;;;;;;;;;;;;5014707;28;19928;-23
2022/10/22 04:36:08;;;;;;;;;;;;;;;;;;5015480;28;19913;-23
2022/10/22 04:38:34;;;;;;;;;;;;;;;;;;5018313;28;20406;-23
2022/10/22 04:41:01;;;;;;;;;;;;;;;;;;5018335;28;20352;-23
2022/10/22 04:43:26;;;;;;;;;;;;;;;;;;5018265;28;19979;-23
2022/10/22 04:45:52;;;;;;;;;;;;;;;;;;5017949;28;19921;-23
2022/10/22 04:48:18;;;;;;;;;;;;;;;;;;5017981;28;19910;-23
2022/10/22 04:50:44;;;;;;;;;;;;;;;;;;5017872;28;20068;-23
2022/10/22 04:53:10;;;;;;;;;;;;;;;;;;5000451;28;20012;-23
2022/10/22 04:55:36;;;;;;;;;;;;;;;;;;5017832;28;19909;-23
2022/10/22 04:58:02;;;;;;;;;;;;;;;;;;5017820;28;19975;-23
2022/10/22 05:00:28;;;;;;;;;;;;;;;;;;5017789;28;20008;-23
2022/10/22 05:02:54;;;;;;;;;;;;;;;;;;5017696;28;19921;-23
2022/10/22 05:05:20;;;;;;;;;;;;;;;;;;5017673;28;20257;-23
2022/10/22 05:07:46;;;;;;;;;;;;;;;;;;5017505;28;19913;-23
2022/10/22 05:10:12;;;;;;;;;;;;;;;;;;5017427;28;19920;-23
2022/10/22 05:12:38;;;;;;;;;;;;;;;;;;5017776;28;19910;-23
2022/10/22 05:15:04;;;;;;;;;;;;;;;;;;5017443;28;19924;-23
2022/10/22 05:17:30;;;;;;;;;;;;;;;;;;5017575;28;19968;-23
2022/10/22 05:19:56;;;;;;;;;;;;;;;;;;5017323;28;19914;-23
2022/10/22 05:22:22;;;;;;;;;;;;;;;;;;4999969;28;19924;-23
2022/10/22 05:24:48;;;;;;;;;;;;;;;;;;5017267;28;19909;-23
2022/10/22 05:27:14;;;;;;;;;;;;;;;;;;5017427;28;19956;-23
2022/10/22 05:29:40;;;;;;;;;;;;;;;;;;5017232;28;19913;-23
2022/10/22 05:32:06;;;;;;;;;;;;;;;;;;5016978;28;19972;-23
2022/10/22 05:34:32;;;;;;;;;;;;;;;;;;5017077;28;19909;-23
2022/10/22 05:36:58;;;;;;;;;;;;;;;;;;5016999;28;19956;-23
2022/10/22 05:39:24;;;;;;;;;;;;;;;;;;5017060;28;19996;-23
2022/10/22 05:41:50;;;;;;;;;;;;;;;;;;5017007;28;19913;-23
2022/10/22 05:44:16;;;;;;;;;;;;;;;;;;4999626;28;19910;-23
2022/10/22 05:46:42;;;;;;;;;;;;;;;;;;5017150;28;20359;-23
2022/10/22 05:49:09;;;;;;;;;;;;;;;;;;5016153;28;19909;-23
2022/10/22 05:51:35;;;;;;;;;;;;;;;;;;5016638;28;20060;-23
2022/10/22 05:54:01;;;;;;;;;;;;;;;;;;5016757;28;19944;-23
2022/10/22 05:56:27;;;;;;;;;;;;;;;;;;5016664;28;19967;-23
2022/10/22 05:58:53;;;;;;;;;;;;;;;;;;5016828;28;20000;-23
2022/10/22 06:01:19;;;;;;;;;;;;;;;;;;5016580;28;20229;-23
2022/10/22 06:03:45;;;;;;;;;;;;;;;;;;5016766;28;19910;-23
2022/10/22 06:06:11;;;;;;;;;;;;;;;;;;5016517;28;20340;-23
2022/10/22 06:08:37;;;;;;;;;;;;;;;;;;5016409;28;20344;-23
2022/10/22 06:11:03;;;;;;;;;;;;;;;;;;5016207;28;19997;-23
2022/10/22 06:13:31;;;;;;;;;;;;;;;;;;5016302;28;19968;-23
2022/10/22 06:15:57;;;;;;;;;;;;;;;;;;4998946;28;19913;-23
2022/10/22 06:18:23;;;;;;;;;;;;;;;;;;5016447;28;20325;-23
2022/10/22 06:20:49;;;;;;;;;;;;;;;;;;5016265;28;20422;-23
2022/10/22 06:23:15;;;;;;;;;;;;;;;;;;5016155;28;19913;-23
2022/10/22 06:25:41;;;;;;;;;;;;;;;;;;5016355;28;20284;-23
2022/10/22 06:28:07;;;;;;;;;;;;;;;;;;4998639;28;19909;-23
2022/10/22 06:30:33;;;;;;;;;;;;;;;;;;5016178;28;19928;-23
2022/10/22 06:32:59;;;;;;;;;;;;;;;;;;5016201;28;19921;-24
2022/10/22 06:35:25;;;;;;;;;;;;;;;;;;5016009;28;19971;-23
2022/10/22 06:37:51;;;;;;;;;;;;;;;;;;4998561;28;19913;-24
2022/10/22 06:40:18;;;;;;;;;;;;;;;;;;5015953;28;19960;-24
2022/10/22 06:42:44;;;;;;;;;;;;;;;;;;5015845;28;19921;-24
2022/10/22 06:45:10;;;;;;;;;;;;;;;;;;5015718;28;20348;-24
2022/10/22 06:47:36;;;;;;;;;;;;;;;;;;5015953;28;19910;-24
2022/10/22 06:50:02;;;;;;;;;;;;;;;;;;5015738;28;20396;-23
2022/10/22 06:52:28;;;;;;;;;;;;;;;;;;5015908;28;19923;-23
2022/10/22 06:54:54;;;;;;;;;;;;;;;;;;5015627;28;20348;-24
2022/10/22 06:57:20;;;;;;;;;;;;;;;;;;5015559;28;19913;-24
2022/10/22 06:59:46;;;;;;;;;;;;;;;;;;5015647;28;19914;-24
2022/10/22 07:02:12;;;;;;;;;;;;;;;;;;5015508;28;19913;-23
2022/10/22 07:04:37;;;;;;;;;;;;;;;;;;5015448;28;19914;-24
2022/10/22 07:07:03;;;;;;;;;;;;;;;;;;5015387;28;19936;-24
2022/10/22 07:09:29;;;;;;;;;;;;;;;;;;5015425;28;20267;-25
2022/10/22 07:11:55;;;;;;;;;;;;;;;;;;5015056;28;19921;-25
2022/10/22 07:14:21;;;;;;;;;;;;;;;;;;4997929;28;19914;-25
2022/10/22 07:16:47;;;;;;;;;;;;;;;;;;5015541;28;20352;-25
2022/10/22 07:19:13;;;;;;;;;;;;;;;;;;5015606;28;19910;-25
2022/10/22 07:21:39;;;;;;;;;;;;;;;;;;4997996;28;19968;-25
2022/10/22 07:24:05;;;;;;;;;;;;;;;;;;5015305;28;19968;-24
2022/10/22 07:26:31;;;;;;;;;;;;;;;;;;5015588;28;19917;-24
2022/10/22 07:28:57;;;;;;;;;;;;;;;;;;5015211;28;19964;-24
2022/10/22 07:31:23;;;;;;;;;;;;;;;;;;5015218;28;19957;-24
2022/10/22 07:33:49;;;;;;;;;;;;;;;;;;5015252;28;19968;-24
2022/10/22 07:36:18;;;;;;;;;;;;;;;;;;5015491;28;19910;-24
2022/10/22 07:38:44;;;;;;;;;;;;;;;;;;5015051;28;19917;-24
2022/10/22 07:41:11;;;;;;;;;;;;;;;;;;5015133;28;19916;-24
2022/10/22 07:43:37;;;;;;;;;;;;;;;;;;4997807;28;19936;-23
2022/10/22 07:46:03;;;;;;;;;;;;;;;;;;5015275;28;20348;-24
2022/10/22 07:48:28;;;;;;;;;;;;;;;;;;4997658;28;19913;-23
2022/10/22 07:50:55;;;;;;;;;;;;;;;;;;5014916;28;19922;-23
2022/10/22 07:53:21;;;;;;;;;;;;;;;;;;5014960;28;19967;-23
2022/10/22 07:55:47;;;;;;;;;;;;;;;;;;5015218;28;19914;-24
2022/10/22 07:58:13;;;;;;;;;;;;;;;;;;5015093;28;20307;-24
2022/10/22 08:00:39;;;;;;;;;;;;;;;;;;5014985;28;19921;-24
2022/10/22 08:03:05;;;;;;;;;;;;;;;;;;5014871;28;19921;-24
2022/10/22 08:05:31;;;;;;;;;;;;;;;;;;5014933;28;20256;-24
2022/10/22 08:07:57;;;;;;;;;;;;;;;;;;5014804;28;19952;-23
2022/10/22 08:10:23;;;;;;;;;;;;;;;;;;5014576;28;19917;-24
2022/10/22 08:12:49;;;;;;;;;;;;;;;;;;5018453;28;20241;-24
2022/10/22 08:15:15;;;;;;;;;;;;;;;;;;5018734;28;19909;-23
2022/10/22 08:17:41;;;;;;;;;;;;;;;;;;5019317;28;19913;-24
2022/10/22 08:20:07;;;;;;;;;;;;;;;;;;5018602;28;20051;-23
2022/10/22 08:22:33;;;;;;;;;;;;;;;;;;5018847;28;19953;-24
2022/10/22 08:24:59;;;;;;;;;;;;;;;;;;5018498;28;20308;-23
2022/10/22 08:27:25;;;;;;;;;;;;;;;;;;5018675;28;19924;-24
2022/10/22 08:29:51;;;;;;;;;;;;;;;;;;5018508;28;19999;-24
2022/10/22 08:32:17;;;;;;;;;;;;;;;;;;5018570;28;19917;-23
2022/10/22 08:34:43;;;;;;;;;;;;;;;;;;5018384;28;20311;-23
2022/10/22 08:37:13;;;;;;;;;;;;;;;;;;5018285;28;20016;-24
2022/10/22 08:39:39;;;;;;;;;;;;;;;;;;5018523;28;19913;-23
2022/10/22 08:42:05;;;;;;;;;;;;;;;;;;5018173;28;20371;-23
2022/10/22 08:44:31;;;;;;;;;;;;;;;;;;5018484;28;19917;-23
2022/10/22 08:46:56;;;;;;;;;;;;;;;;;;5001545;28;20460;-24
2022/10/22 08:49:22;;;;;;;;;;;;;;;;;;5000807;28;20015;-24
2022/10/22 08:51:48;;;;;;;;;;;;;;;;;;5000681;28;19918;-23
2022/10/22 08:54:14;;;;;;;;;;;;;;;;;;5018021;28;19924;-23
2022/10/22 08:56:40;;;;;;;;;;;;;;;;;;5018172;28;19913;-24
2022/10/22 08:59:06;;;;;;;;;;;;;;;;;;5000403;28;19910;-24
2022/10/22 09:01:32;;;;;;;;;;;;;;;;;;5017726;28;19913;-23
2022/10/22 09:03:58;;;;;;;;;;;;;;;;;;5018731;28;19909;-23
2022/10/22 09:06:24;;;;;;;;;;;;;;;;;;5017742;28;19917;-24
2022/10/22 09:08:50;;;;;;;;;;;;;;;;;;5017605;28;19909;-24
2022/10/22 09:11:16;;;;;;;;;;;;;;;;;;5016892;28;20012;-23
2022/10/22 09:13:42;;;;;;;;;;;;;;;;;;5017698;28;19923;-24
2022/10/22 09:16:08;;;;;;;;;;;;;;;;;;5017627;28;20329;-24
2022/10/22 09:18:35;;;;;;;;;;;;;;;;;;5017776;28;19921;-24
2022/10/22 09:21:01;;;;;;;;;;;;;;;;;;5017773;28;19963;-24
2022/10/22 09:23:27;;;;;;;;;;;;;;;;;;5016538;28;20220;-23
2022/10/22 09:25:54;;;;;;;;;;;;;;;;;;5017690;28;19941;-24
2022/10/22 09:28:20;;;;;;;;;;;;;;;;;;5017400;28;19956;-23
2022/10/22 09:30:46;;;;;;;;;;;;;;;;;;5017322;28;20364;-24
2022/10/22 09:33:12;;;;;;;;;;;;;;;;;;5017529;28;19913;-24
2022/10/22 09:35:38;;;;;;;;;;;;;;;;;;5017286;28;20264;-24
2022/10/22 09:38:04;;;;;;;;;;;;;;;;;;4999876;28;20284;-23
2022/10/22 09:40:30;;;;;;;;;;;;;;;;;;5017136;28;19921;-24
2022/10/22 09:42:56;;;;;;;;;;;;;;;;;;5017091;28;19940;-23
2022/10/22 09:45:21;;;;;;;;;;;;;;;;;;5017052;28;19921;-24
2022/10/22 09:47:47;;;;;;;;;;;;;;;;;;5017267;28;19913;-24
2022/10/22 09:50:13;;;;;;;;;;;;;;;;;;5017126;28;20009;-24
2022/10/22 09:52:40;;;;;;;;;;;;;;;;;;4999544;28;20341;-23
2022/10/22 09:55:06;;;;;;;;;;;;;;;;;;5016981;28;19920;-23
2022/10/22 09:57:35;;;;;;;;;;;;;;;;;;5017347;28;19924;-23
2022/10/22 10:00:01;;;;;;;;;;;;;;;;;;5016643;28;19920;-24
2022/10/22 10:02:27;;;;;;;;;;;;;;;;;;5016645;28;19913;-24
2022/10/22 10:04:53;;;;;;;;;;;;;;;;;;5016496;28;19959;-24
2022/10/22 10:07:19;;;;;;;;;;;;;;;;;;5016456;28;19948;-24
2022/10/22 10:09:45;;;;;;;;;;;;;;;;;;5016777;28;20263;-23
2022/10/22 10:12:11;;;;;;;;;;;;;;;;;;5016167;28;20364;-23
2022/10/22 10:14:37;;;;;;;;;;;;;;;;;;5016629;28;19910;-24
2022/10/22 10:17:03;;;;;;;;;;;;;;;;;;5016211;28;20304;-23
2022/10/22 10:19:29;;;;;;;;;;;;;;;;;;5016313;28;19917;-24
2022/10/22 10:21:55;;;;;;;;;;;;;;;;;;4999030;28;20332;-23
2022/10/22 10:24:21;;;;;;;;;;;;;;;;;;4998883;28;19972;-23
2022/10/22 10:26:47;;;;;;;;;;;;;;;;;;5016437;28;19952;-24
2022/10/22 10:29:13;;;;;;;;;;;;;;;;;;5016283;28;19913;-23
2022/10/22 10:31:39;;;;;;;;;;;;;;;;;;5015950;28;20315;-24
2022/10/22 10:34:05;;;;;;;;;;;;;;;;;;5015916;28;19944;-24
2022/10/22 10:36:31;;;;;;;;;;;;;;;;;;5016235;28;20371;-23
2022/10/22 10:38:57;;;;;;;;;;;;;;;;;;5016562;28;19910;-24
2022/10/22 10:41:23;;;;;;;;;;;;;;;;;;5016221;28;19923;-24
2022/10/22 10:43:49;;;;;;;;;;;;;;;;;;5015886;28;19956;-23
2022/10/22 10:46:15;;;;;;;;;;;;;;;;;;5015836;28;20233;-24
2022/10/22 10:48:41;;;;;;;;;;;;;;;;;;5015690;28;20356;-23
2022/10/22 10:51:07;;;;;;;;;;;;;;;;;;5015616;28;19948;-23
2022/10/22 10:53:33;;;;;;;;;;;;;;;;;;5015685;28;19913;-23
2022/10/22 10:55:59;;;;;;;;;;;;;;;;;;5015592;28;19971;-24
2022/10/22 10:58:25;;;;;;;;;;;;;;;;;;5015494;28;19926;-24
2022/10/22 11:00:51;;;;;;;;;;;;;;;;;;5015433;28;19925;-23
2022/10/22 11:03:17;;;;;;;;;;;;;;;;;;5015430;28;19914;-24
2022/10/22 11:05:43;;;;;;;;;;;;;;;;;;5015542;28;19910;-23
2022/10/22 11:08:09;;;;;;;;;;;;;;;;;;5015358;28;20312;-24
2022/10/22 11:10:35;;;;;;;;;;;;;;;;;;5015631;28;19941;-24
2022/10/22 11:13:01;;;;;;;;;;;;;;;;;;4996122;28;19949;-23
2022/10/22 11:15:28;;;;;;;;;;;;;;;;;;4978344;28;21267;-24
2022/10/22 11:17:54;;;;;;;;;;;;;;;;;;4995562;28;19917;-24
2022/10/22 11:20:20;;;;;;;;;;;;;;;;;;4995829;28;19914;-24
2022/10/22 11:22:46;;;;;;;;;;;;;;;;;;4995545;28;20369;-24
2022/10/22 11:25:12;;;;;;;;;;;;;;;;;;4995520;28;20014;-24
2022/10/22 11:27:38;;;;;;;;;;;;;;;;;;4995649;28;19914;-24
2022/10/22 11:30:04;;;;;;;;;;;;;;;;;;4994953;28;19910;-24
2022/10/22 11:32:30;;;;;;;;;;;;;;;;;;4995341;28;19948;-24
2022/10/22 11:34:56;;;;;;;;;;;;;;;;;;4995335;28;19929;-24
2022/10/22 11:37:22;;;;;;;;;;;;;;;;;;4995329;28;19914;-24
2022/10/22 11:39:48;;;;;;;;;;;;;;;;;;4995117;28;19913;-24
2022/10/22 11:42:14;;;;;;;;;;;;;;;;;;4995525;28;19984;-24
2022/10/22 11:44:40;;;;;;;;;;;;;;;;;;4995248;28;19914;-24
2022/10/22 11:47:06;;;;;;;;;;;;;;;;;;4993460;28;19922;-24
2022/10/22 11:49:32;;;;;;;;;;;;;;;;;;4995261;28;19972;-23
2022/10/22 11:51:58;;;;;;;;;;;;;;;;;;4994111;28;19917;-23
2022/10/22 11:54:24;;;;;;;;;;;;;;;;;;4995233;28;20239;-24
2022/10/22 11:56:49;;;;;;;;;;;;;;;;;;4995141;28;19914;-24
2022/10/22 11:59:15;;;;;;;;;;;;;;;;;;4995376;28;19909;-23
2022/10/22 12:01:41;;;;;;;;;;;;;;;;;;4995121;28;19914;-24
2022/10/22 12:04:08;;;;;;;;;;;;;;;;;;4995080;28;20333;-24
2022/10/22 12:06:33;;;;;;;;;;;;;;;;;;4995335;28;19980;-23
2022/10/22 12:09:00;;;;;;;;;;;;;;;;;;4995264;28;20360;-23
2022/10/22 12:11:26;;;;;;;;;;;;;;;;;;4994795;28;20024;-23
2022/10/22 12:13:52;;;;;;;;;;;;;;;;;;4995309;28;19965;-23
2022/10/22 12:16:17;;;;;;;;;;;;;;;;;;4995011;28;20234;-23
2022/10/22 12:18:44;;;;;;;;;;;;;;;;;;4994991;28;19921;-24
2022/10/22 12:21:09;;;;;;;;;;;;;;;;;;4994943;28;19945;-24
2022/10/22 12:23:35;;;;;;;;;;;;;;;;;;4994970;28;19917;-24
2022/10/22 12:26:01;;;;;;;;;;;;;;;;;;4994914;28;19917;-24
2022/10/22 12:28:27;;;;;;;;;;;;;;;;;;4995085;28;20296;-23
2022/10/22 12:30:53;;;;;;;;;;;;;;;;;;4994819;28;20372;-23
2022/10/22 12:33:19;;;;;;;;;;;;;;;;;;4995137;28;19918;-24
2022/10/22 12:35:45;;;;;;;;;;;;;;;;;;4995130;28;19992;-23
2022/10/22 12:38:11;;;;;;;;;;;;;;;;;;4994862;28;19936;-24
2022/10/22 12:40:37;;;;;;;;;;;;;;;;;;4995046;28;19949;-24
2022/10/22 12:43:03;;;;;;;;;;;;;;;;;;4994996;28;19925;-24
2022/10/22 12:45:29;;;;;;;;;;;;;;;;;;4994795;28;19920;-24
2022/10/22 12:47:55;;;;;;;;;;;;;;;;;;4994823;28;20003;-24
2022/10/22 12:50:21;;;;;;;;;;;;;;;;;;4994401;28;19909;-24
2022/10/22 12:52:47;;;;;;;;;;;;;;;;;;4994679;28;19913;-23
2022/10/22 12:55:13;;;;;;;;;;;;;;;;;;4994725;28;19913;-24
2022/10/22 12:57:39;;;;;;;;;;;;;;;;;;4996291;28;19920;-24
2022/10/22 13:00:05;;;;;;;;;;;;;;;;;;4998374;28;20341;-24
2022/10/22 13:02:31;;;;;;;;;;;;;;;;;;4998084;28;19910;-23
2022/10/22 13:04:57;;;;;;;;;;;;;;;;;;4998188;28;19914;-23
2022/10/22 13:07:24;;;;;;;;;;;;;;;;;;4998002;28;20244;-23
2022/10/22 13:09:50;;;;;;;;;;;;;;;;;;4998288;28;20333;-23
2022/10/22 13:12:17;;;;;;;;;;;;;;;;;;4997586;28;19917;-24
2022/10/22 13:14:43;;;;;;;;;;;;;;;;;;4998207;28;19910;-24
2022/10/22 13:17:09;;;;;;;;;;;;;;;;;;4998573;28;19945;-24
2022/10/22 13:19:35;;;;;;;;;;;;;;;;;;4997863;28;19917;-23
2022/10/22 13:22:01;;;;;;;;;;;;;;;;;;4997886;28;19909;-25
2022/10/22 13:24:28;;;;;;;;;;;;;;;;;;4997721;28;19914;-22
2022/10/22 13:26:54;;;;;;;;;;;;;;;;;;4997526;28;19976;-24
2022/10/22 13:29:20;;;;;;;;;;;;;;;;;;4997597;28;19910;-24
2022/10/22 13:31:46;;;;;;;;;;;;;;;;;;4997575;28;19922;-23
2022/10/22 13:34:12;;;;;;;;;;;;;;;;;;4997493;28;19924;-24
2022/10/22 13:36:38;;;;;;;;;;;;;;;;;;4998013;28;19996;-24
2022/10/22 13:39:06;;;;;;;;;;;;;;;;;;4997398;28;19924;-23
2022/10/22 13:41:32;;;;;;;;;;;;;;;;;;4997433;28;19910;-23
2022/10/22 13:43:58;;;;;;;;;;;;;;;;;;4997299;28;19968;-24
2022/10/22 13:46:24;;;;;;;;;;;;;;;;;;4997616;28;19945;-23
2022/10/22 13:48:51;;;;;;;;;;;;;;;;;;4997267;28;20268;-24
2022/10/22 13:51:17;;;;;;;;;;;;;;;;;;4997423;28;19914;-23
2022/10/22 13:53:43;;;;;;;;;;;;;;;;;;4997144;28;20000;-23
2022/10/22 13:56:09;;;;;;;;;;;;;;;;;;4997141;28;19914;-23
2022/10/22 13:58:35;;;;;;;;;;;;;;;;;;4997058;28;19928;-24
2022/10/22 14:01:01;;;;;;;;;;;;;;;;;;4997310;28;19914;-24
2022/10/22 14:03:27;;;;;;;;;;;;;;;;;;4996998;28;20005;-24
2022/10/22 14:05:53;;;;;;;;;;;;;;;;;;4997022;28;19969;-24
2022/10/22 14:08:19;;;;;;;;;;;;;;;;;;4996656;28;19918;-24
2022/10/22 14:10:45;;;;;;;;;;;;;;;;;;4996563;28;19921;-24
2022/10/22 14:13:11;;;;;;;;;;;;;;;;;;4996811;28;19918;-24
2022/10/22 14:15:37;;;;;;;;;;;;;;;;;;4996790;28;19964;-24
2022/10/22 14:18:03;;;;;;;;;;;;;;;;;;4996625;28;19914;-24
2022/10/22 14:20:29;;;;;;;;;;;;;;;;;;4996762;28;20004;-24
2022/10/22 14:22:56;;;;;;;;;;;;;;;;;;4996932;28;20300;-24
2022/10/22 14:25:21;;;;;;;;;;;;;;;;;;4996861;28;20341;-24
2022/10/22 14:27:48;;;;;;;;;;;;;;;;;;4996462;28;19921;-24
2022/10/22 14:30:14;;;;;;;;;;;;;;;;;;4996446;28;19914;-24
2022/10/22 14:32:40;;;;;;;;;;;;;;;;;;4996442;28;19928;-24
2022/10/22 14:35:06;;;;;;;;;;;;;;;;;;4996677;28;20004;-24
2022/10/22 14:37:32;;;;;;;;;;;;;;;;;;4996276;28;20304;-24
2022/10/22 14:40:01;;;;;;;;;;;;;;;;;;4996249;28;19939;-24
2022/10/22 14:42:27;;;;;;;;;;;;;;;;;;4996302;28;20399;-24
2022/10/22 14:44:53;;;;;;;;;;;;;;;;;;4996490;28;19914;-24
2022/10/22 14:47:20;;;;;;;;;;;;;;;;;;4995963;28;19924;-24
2022/10/22 14:49:46;;;;;;;;;;;;;;;;;;4996046;28;19909;-24
2022/10/22 14:52:12;;;;;;;;;;;;;;;;;;4996241;28;19921;-24
2022/10/22 14:54:38;;;;;;;;;;;;;;;;;;4996067;28;20050;-24
2022/10/22 14:57:04;;;;;;;;;;;;;;;;;;4996179;28;19960;-24
2022/10/22 14:59:30;;;;;;;;;;;;;;;;;;4995921;28;20009;-24
2022/10/22 15:01:56;;;;;;;;;;;;;;;;;;4996188;28;20012;-24
2022/10/22 15:04:22;;;;;;;;;;;;;;;;;;4995919;28;20395;-24
2022/10/22 15:06:48;;;;;;;;;;;;;;;;;;4996101;28;19924;-24
2022/10/22 15:09:14;;;;;;;;;;;;;;;;;;4995746;28;20257;-24
2022/10/22 15:11:41;;;;;;;;;;;;;;;;;;4995557;28;19997;-24
2022/10/22 15:14:08;;;;;;;;;;;;;;;;;;4995999;28;20061;-24
2022/10/22 15:16:34;;;;;;;;;;;;;;;;;;4995766;28;19910;-24
2022/10/22 15:19:00;;;;;;;;;;;;;;;;;;4995611;28;19920;-24
2022/10/22 15:21:26;;;;;;;;;;;;;;;;;;4995809;28;20229;-24
2022/10/22 15:23:52;;;;;;;;;;;;;;;;;;4995609;28;19917;-24
2022/10/22 15:26:18;;;;;;;;;;;;;;;;;;4995733;28;19920;-25
2022/10/22 15:28:44;;;;;;;;;;;;;;;;;;4995771;28;19909;-28
2022/10/22 15:31:10;;;;;;;;;;;;;;;;;;4995423;28;19922;-26
2022/10/22 15:33:36;;;;;;;;;;;;;;;;;;4995445;28;19972;-29
2022/10/22 15:36:02;;;;;;;;;;;;;;;;;;4995462;28;19921;-26
2022/10/22 15:38:28;;;;;;;;;;;;;;;;;;4995289;28;20418;-23
2022/10/22 15:40:53;;;;;;;;;;;;;;;;;;4994400;28;19910;-26
2022/10/22 15:43:19;;;;;;;;;;;;;;;;;;4995381;28;19914;-25
2022/10/22 15:45:45;;;;;;;;;;;;;;;;;;4995351;28;19913;-27
2022/10/22 15:48:11;;;;;;;;;;;;;;;;;;4995263;28;20016;-25
2022/10/22 15:50:38;;;;;;;;;;;;;;;;;;4995010;28;19913;-23
2022/10/22 15:53:04;;;;;;;;;;;;;;;;;;4995329;28;19910;-22
2022/10/22 15:55:30;;;;;;;;;;;;;;;;;;4995436;28;19996;-23
2022/10/22 15:57:56;;;;;;;;;;;;;;;;;;4995166;28;19909;-25
2022/10/22 16:00:23;;;;;;;;;;;;;;;;;;4995203;28;19964;-27
2022/10/22 16:02:49;;;;;;;;;;;;;;;;;;4995416;28;19967;-26
2022/10/22 16:05:15;;;;;;;;;;;;;;;;;;4995120;28;19910;-30
2022/10/22 16:07:41;;;;;;;;;;;;;;;;;;4995111;28;19925;-23
2022/10/22 16:10:11;;;;;;;;;;;;;;;;;;4995395;28;19910;-29
2022/10/22 16:12:39;;;;;;;;;;;;;;;;;;4994859;28;19918;-24
2022/10/22 16:15:05;;;;;;;;;;;;;;;;;;4995312;28;19921;-28
2022/10/22 16:17:31;;;;;;;;;;;;;;;;;;4995299;28;20361;-25
2022/10/22 16:19:57;;;;;;;;;;;;;;;;;;4995319;28;19917;-28
2022/10/22 16:22:23;;;;;;;;;;;;;;;;;;4995220;28;20428;-26
2022/10/22 16:24:49;;;;;;;;;;;;;;;;;;4995045;28;19910;-29
2022/10/22 16:27:15;;;;;;;;;;;;;;;;;;4994837;28;19925;-24
2022/10/22 16:29:41;;;;;;;;;;;;;;;;;;4994976;28;19965;-28
2022/10/22 16:32:07;;;;;;;;;;;;;;;;;;4995574;28;20004;-26
2022/10/22 16:34:33;;;;;;;;;;;;;;;;;;4998680;28;19910;-25
2022/10/22 16:36:59;;;;;;;;;;;;;;;;;;4997597;28;19917;-27